KEAU/EAU METAR and TAF weather

Enter ICAO airport designator
Station Type Date Time Source
KEAU METAR 2018/10/22 16:56 UTC NOAA

KEAU 221656Z 27010KT 10SM CLR 13/01 A3001 RMK AO2 SLP169 T01280006


Station Type Date Time Source
KEAU Decoded METAR 2018/10/22 16:56 UTC NOAA

EAU CLAIRE CHIPPEWA VALLEY, WI, United States (KEAU) 44-52N 091-29W
Oct 22, 2018 - 12:56 PM EDT / 2018.10.22 1656 UTC
Wind: from the W (270 degrees) at 12 MPH (10 KT):0
Visibility: 10 mile(s):0
Sky conditions: clear
Temperature: 55.0 F (12.8 C)
Dew Point: 33.1 F (0.6 C)
Relative Humidity: 43%
Pressure (altimeter): 30.01 in. Hg (1016 hPa)
ob: KEAU 221656Z 27010KT 10SM CLR 13/01 A3001 RMK AO2 SLP169 T01280006
cycle: 17

Station Type Date Time Source
KEAU TAF 2018/10/22 12:22 UTC NOAA

TAF KEAU 221120Z 2212/2312 VRB03KT P6SM SKC
FM221400 26007KT P6SM SKC
FM221700 31012G18KT P6SM SCT200
FM230000 31010KT P6SM SCT250


Example: see airport list